createdAt,value
2018-09-12T00:00:48.950Z,17.20
2018-09-12T00:03:17.688Z,16.33
2018-09-12T00:05:46.393Z,14.00
2018-09-12T00:08:15.184Z,13.67
2018-09-12T00:10:43.961Z,15.47
2018-09-12T00:13:12.603Z,15.67
2018-09-12T00:15:41.569Z,16.20
2018-09-12T00:18:10.603Z,17.87
2018-09-12T00:20:39.281Z,18.07
2018-09-12T00:23:08.150Z,18.17
2018-09-12T00:25:37.140Z,16.97
2018-09-12T00:28:06.215Z,18.13
2018-09-12T00:30:35.460Z,17.17
2018-09-12T00:33:04.353Z,15.57
2018-09-12T00:35:33.116Z,16.27
2018-09-12T00:38:02.830Z,18.27
2018-09-12T00:40:31.624Z,17.50
2018-09-12T00:43:00.546Z,16.87
2018-09-12T00:45:29.326Z,15.97
2018-09-12T00:47:58.073Z,15.63
2018-09-12T00:50:27.009Z,16.63
2018-09-12T00:52:55.908Z,16.27
2018-09-12T00:55:24.695Z,16.97
2018-09-12T00:57:53.585Z,19.20
2018-09-12T01:00:22.266Z,18.30
2018-09-12T01:02:50.980Z,17.53
2018-09-12T01:05:19.789Z,15.50
2018-09-12T01:07:49.118Z,15.93
2018-09-12T01:10:17.857Z,17.27
2018-09-12T01:12:47.957Z,19.20
2018-09-12T01:15:17.075Z,18.80
2018-09-12T01:17:46.062Z,17.90
2018-09-12T01:20:15.522Z,18.70
2018-09-12T01:22:44.405Z,16.83
2018-09-12T01:25:13.243Z,16.50
2018-09-12T01:27:41.977Z,16.30
2018-09-12T01:30:15.023Z,16.73
2018-09-12T01:32:43.659Z,18.57
2018-09-12T01:35:12.433Z,18.63
2018-09-12T01:37:41.071Z,18.70
2018-09-12T01:40:09.817Z,16.10
2018-09-12T01:42:38.567Z,17.80
2018-09-12T01:45:07.291Z,17.93
2018-09-12T01:47:36.024Z,16.20
2018-09-12T01:50:05.614Z,17.00
2018-09-12T01:52:34.389Z,15.77
2018-09-12T01:55:03.680Z,14.93
2018-09-12T01:57:32.445Z,15.53
2018-09-12T02:00:01.158Z,16.20
2018-09-12T02:02:29.969Z,15.10
2018-09-12T02:04:58.971Z,15.83
2018-09-12T02:07:27.762Z,15.43
2018-09-12T02:09:56.550Z,13.80
2018-09-12T02:12:25.573Z,13.00
2018-09-12T02:14:54.336Z,13.80
2018-09-12T02:17:22.987Z,12.33
2018-09-12T02:19:51.727Z,12.73
2018-09-12T02:22:20.418Z,11.93
2018-09-12T02:24:49.201Z,11.80
2018-09-12T02:27:17.846Z,12.63
2018-09-12T02:33:07.726Z,11.37
2018-09-12T02:35:40.597Z,10.63
2018-09-12T02:38:09.366Z,11.57
2018-09-12T02:40:38.281Z,13.43
2018-09-12T02:43:07.033Z,14.33
2018-09-12T02:45:35.757Z,13.60
2018-09-12T02:48:04.538Z,14.00
2018-09-12T02:50:34.355Z,14.90
2018-09-12T02:53:03.998Z,14.23
2018-09-12T02:55:32.789Z,14.60
2018-09-12T02:58:01.544Z,14.07
2018-09-12T03:00:30.513Z,13.20
2018-09-12T03:02:59.209Z,13.37
2018-09-12T03:05:28.700Z,13.37
2018-09-12T03:07:57.561Z,11.90
2018-09-12T03:10:26.337Z,11.87
2018-09-12T03:12:55.181Z,12.87
2018-09-12T03:15:23.923Z,12.37
2018-09-12T03:17:52.834Z,13.27
2018-09-12T03:20:21.609Z,11.73
2018-09-12T03:22:50.334Z,13.67
2018-09-12T03:25:19.023Z,13.43
2018-09-12T03:27:47.817Z,13.37
2018-09-12T03:30:16.594Z,12.97
2018-09-12T03:32:46.717Z,13.53
2018-09-12T03:35:15.488Z,12.50
2018-09-12T03:37:45.203Z,12.63
2018-09-12T03:40:13.940Z,12.43
2018-09-12T03:42:42.693Z,12.67
2018-09-12T03:45:11.417Z,12.13
2018-09-12T03:47:40.107Z,12.23
2018-09-12T03:50:08.925Z,12.60
2018-09-12T03:52:37.773Z,11.83
2018-09-12T03:55:06.583Z,11.63
2018-09-12T03:57:41.893Z,13.30
2018-09-12T04:00:10.977Z,12.50
2018-09-12T04:02:40.588Z,13.13
2018-09-12T04:05:09.388Z,12.70
2018-09-12T04:07:38.239Z,13.30
2018-09-12T04:10:08.120Z,13.87
2018-09-12T04:12:38.228Z,14.53
2018-09-12T04:15:07.154Z,13.90
2018-09-12T04:17:37.670Z,15.13
2018-09-12T04:20:06.557Z,13.97
2018-09-12T04:22:35.326Z,13.77
2018-09-12T04:25:03.990Z,13.00
2018-09-12T04:27:32.743Z,13.27
2018-09-12T04:30:01.530Z,13.63
2018-09-12T04:32:30.424Z,14.33
2018-09-12T04:35:00.195Z,14.63
2018-09-12T04:37:28.912Z,15.63
2018-09-12T04:39:57.972Z,14.87
2018-09-12T04:42:26.925Z,15.10
2018-09-12T04:44:55.770Z,14.50
2018-09-12T04:47:24.806Z,14.50
2018-09-12T04:49:53.982Z,14.13
2018-09-12T04:52:22.634Z,14.30
2018-09-12T04:54:51.334Z,13.97
2018-09-12T04:57:20.030Z,13.50
2018-09-12T04:59:48.778Z,13.43
2018-09-12T05:02:17.591Z,13.73
2018-09-12T05:04:46.447Z,13.53
2018-09-12T05:07:15.114Z,13.43
2018-09-12T05:09:44.776Z,12.90
2018-09-12T05:12:13.605Z,12.37
2018-09-12T05:14:42.260Z,12.77
2018-09-12T05:17:11.033Z,12.63
2018-09-12T05:19:39.719Z,12.93
2018-09-12T05:22:08.995Z,13.50
2018-09-12T05:24:37.798Z,13.73
2018-09-12T05:27:06.455Z,13.93
2018-09-12T05:29:35.304Z,13.33
2018-09-12T05:32:04.165Z,13.57
2018-09-12T05:34:32.908Z,14.50
2018-09-12T05:37:01.593Z,13.57
2018-09-12T05:39:30.438Z,12.90
2018-09-12T05:41:59.069Z,13.13
2018-09-12T05:44:27.870Z,12.63
2018-09-12T05:46:57.216Z,13.23
2018-09-12T05:49:26.941Z,12.93
2018-09-12T05:51:55.686Z,13.53
2018-09-12T05:54:24.417Z,13.47
2018-09-12T05:56:53.033Z,13.17
2018-09-12T05:59:22.649Z,13.00
2018-09-12T06:01:51.360Z,13.00
2018-09-12T06:04:20.105Z,13.07
2018-09-12T06:06:49.001Z,12.63
2018-09-12T06:09:17.650Z,12.77
2018-09-12T06:11:47.268Z,12.60
2018-09-12T06:14:16.041Z,12.07
2018-09-12T06:16:44.685Z,11.67
2018-09-12T06:19:13.327Z,10.70
2018-09-12T06:21:41.991Z,10.17
2018-09-12T06:24:10.570Z,10.13
2018-09-12T06:26:39.253Z,8.97
2018-09-12T06:29:08.047Z,6.87
2018-09-12T06:31:36.658Z,7.23
2018-09-12T06:34:05.413Z,6.07
2018-09-12T06:36:34.018Z,6.70
2018-09-12T06:39:02.722Z,8.00
2018-09-12T06:41:31.395Z,9.57
2018-09-12T06:44:00.062Z,9.07
2018-09-12T06:46:28.781Z,9.70
2018-09-12T06:48:57.386Z,8.47
2018-09-12T06:51:26.022Z,6.73
2018-09-12T06:53:54.653Z,7.20
2018-09-12T06:56:23.491Z,6.60
2018-09-12T06:58:52.137Z,5.97
2018-09-12T07:01:20.854Z,5.97
2018-09-12T07:03:49.550Z,7.30
2018-09-12T07:06:18.239Z,6.57
2018-09-12T07:08:46.960Z,7.10
2018-09-12T07:11:15.599Z,6.00
2018-09-12T07:13:44.270Z,5.67
2018-09-12T07:16:12.881Z,6.33
2018-09-12T07:18:41.465Z,5.90
2018-09-12T07:21:10.956Z,5.77
2018-09-12T07:23:39.626Z,6.13
2018-09-12T07:26:08.531Z,6.73
2018-09-12T07:28:38.010Z,6.63
2018-09-12T07:31:07.634Z,6.80
2018-09-12T07:33:36.663Z,5.70
2018-09-12T07:36:05.377Z,5.20
2018-09-12T07:38:34.022Z,4.57
2018-09-12T07:41:02.955Z,4.43
2018-09-12T07:43:31.599Z,5.00
2018-09-12T07:46:00.238Z,4.60
2018-09-12T07:48:28.924Z,4.73
2018-09-12T07:50:57.507Z,4.67
2018-09-12T07:53:26.157Z,4.63
2018-09-12T07:55:54.892Z,4.80
2018-09-12T07:58:23.622Z,4.53
2018-09-12T08:00:52.346Z,4.57
2018-09-12T08:03:21.019Z,4.47
2018-09-12T08:05:49.710Z,4.80
2018-09-12T08:08:18.325Z,4.80
2018-09-12T08:10:47.022Z,5.60
2018-09-12T08:13:15.647Z,5.70
2018-09-12T08:15:44.372Z,5.50
2018-09-12T08:18:13.022Z,5.57
2018-09-12T08:20:41.783Z,5.45
2018-09-12T08:23:11.672Z,4.87
2018-09-12T08:25:40.401Z,4.93
2018-09-12T08:28:09.141Z,4.90
2018-09-12T08:30:38.046Z,4.57
2018-09-12T08:33:06.475Z,4.17
2018-09-12T08:35:35.506Z,4.60
2018-09-12T08:38:05.163Z,4.17
2018-09-12T08:40:33.915Z,4.33
2018-09-12T08:43:03.017Z,4.53
2018-09-12T08:45:31.735Z,4.37
2018-09-12T08:48:00.591Z,4.27
2018-09-12T08:50:29.226Z,3.90
2018-09-12T08:52:57.935Z,4.13
2018-09-12T08:55:26.815Z,3.93
2018-09-12T08:57:55.761Z,3.87
2018-09-12T09:00:28.696Z,3.63
2018-09-12T09:02:57.297Z,4.43
2018-09-12T09:05:26.025Z,3.13
2018-09-12T09:07:54.749Z,3.17
2018-09-12T09:10:23.456Z,3.50
2018-09-12T09:12:52.131Z,3.53
2018-09-12T09:15:21.755Z,4.20
2018-09-12T09:17:50.375Z,3.50
2018-09-12T09:20:19.121Z,3.50
2018-09-12T09:22:48.033Z,3.60
2018-09-12T09:25:16.763Z,3.40
2018-09-12T09:27:45.841Z,3.17
2018-09-12T09:30:14.888Z,3.60
2018-09-12T09:32:44.905Z,3.60
2018-09-12T09:35:13.451Z,3.67
2018-09-12T09:37:42.259Z,3.27
2018-09-12T09:40:11.948Z,3.27
2018-09-12T09:42:40.757Z,3.17
2018-09-12T09:45:09.533Z,2.90
2018-09-12T09:47:38.311Z,3.17
2018-09-12T09:50:07.030Z,3.20
2018-09-12T09:52:35.788Z,2.70
2018-09-12T09:55:04.513Z,3.30
2018-09-12T09:57:34.345Z,3.03
2018-09-12T10:00:02.979Z,3.40
2018-09-12T10:02:36.809Z,3.30
2018-09-12T10:05:10.802Z,3.20
2018-09-12T10:07:44.707Z,3.37
2018-09-12T10:10:13.384Z,3.10
2018-09-12T10:12:42.198Z,3.30
2018-09-12T10:15:11.034Z,2.70
2018-09-12T10:17:39.629Z,2.90
2018-09-12T10:20:08.696Z,2.73
2018-09-12T10:22:37.334Z,3.00
2018-09-12T10:25:06.069Z,3.73
2018-09-12T10:27:34.925Z,3.10
2018-09-12T10:30:03.670Z,3.10
2018-09-12T10:32:32.138Z,2.93
2018-09-12T10:35:00.694Z,2.80
2018-09-12T10:37:29.495Z,3.10
2018-09-12T10:39:58.037Z,2.87
2018-09-12T10:42:27.729Z,3.33
2018-09-12T10:44:56.248Z,3.07
2018-09-12T10:47:25.796Z,2.77
2018-09-12T10:49:54.451Z,2.93
2018-09-12T10:52:23.267Z,3.37
2018-09-12T10:54:51.850Z,3.07
2018-09-12T10:57:20.520Z,3.20
2018-09-12T10:59:49.095Z,2.83
2018-09-12T11:02:18.214Z,2.83
2018-09-12T11:04:46.782Z,2.60
2018-09-12T11:07:15.385Z,3.03
2018-09-12T11:09:44.570Z,3.07
2018-09-12T11:12:12.997Z,2.93
2018-09-12T11:14:41.614Z,3.27
2018-09-12T11:17:10.221Z,5.13
2018-09-12T11:19:38.727Z,2.73
2018-09-12T11:22:07.265Z,2.77
2018-09-12T11:24:35.826Z,2.70
2018-09-12T11:27:04.394Z,2.95
2018-09-12T11:29:33.027Z,2.92
2018-09-12T11:32:01.678Z,2.85
2018-09-12T11:34:30.254Z,2.75
2018-09-12T11:36:58.852Z,2.65
2018-09-12T11:39:28.254Z,2.75
2018-09-12T11:41:57.631Z,2.65
2018-09-12T11:44:26.125Z,2.60
2018-09-12T11:46:54.545Z,3.10
2018-09-12T11:49:23.174Z,3.00
2018-09-12T11:51:51.700Z,3.10
2018-09-12T11:54:20.347Z,3.05
2018-09-12T11:56:49.712Z,3.17
2018-09-12T11:59:18.321Z,3.12
2018-09-12T12:01:46.972Z,3.70
2018-09-12T12:04:16.693Z,2.83
2018-09-12T12:06:45.230Z,2.62
2018-09-12T12:09:13.876Z,2.98
2018-09-12T12:11:42.506Z,2.90
2018-09-12T12:14:11.063Z,3.00
2018-09-12T12:16:40.312Z,2.90
2018-09-12T12:19:09.029Z,3.08
2018-09-12T12:21:37.567Z,3.20
2018-09-12T12:24:06.476Z,3.12
2018-09-12T12:26:35.616Z,3.00
2018-09-12T12:29:04.471Z,3.55
2018-09-12T12:31:33.173Z,3.60
2018-09-12T12:34:01.682Z,3.70
2018-09-12T12:36:31.076Z,3.30
2018-09-12T12:38:59.568Z,2.92
2018-09-12T12:41:28.240Z,3.20
2018-09-12T12:43:57.162Z,3.60
2018-09-12T12:46:25.765Z,3.30
2018-09-12T12:48:54.334Z,3.30
2018-09-12T12:51:24.993Z,3.20
2018-09-12T12:53:53.667Z,3.47
2018-09-12T12:56:23.041Z,4.75
2018-09-12T12:58:51.562Z,4.92
2018-09-12T13:01:20.284Z,3.40
2018-09-12T13:03:48.937Z,3.40
2018-09-12T13:06:17.474Z,3.33
2018-09-12T13:08:46.031Z,3.70
2018-09-12T13:11:14.698Z,3.65
2018-09-12T13:13:43.158Z,3.70
2018-09-12T13:16:11.582Z,3.15
2018-09-12T13:18:40.278Z,3.45
2018-09-12T13:21:08.869Z,3.72
2018-09-12T13:23:38.064Z,3.90
2018-09-12T13:26:07.387Z,3.83
2018-09-12T13:28:36.675Z,3.45
2018-09-12T13:31:05.270Z,3.77
2018-09-12T13:33:33.998Z,3.52
2018-09-12T13:36:02.462Z,3.60
2018-09-12T13:38:32.919Z,3.80
2018-09-12T13:41:02.450Z,3.90
2018-09-12T13:43:30.966Z,3.72
2018-09-12T13:45:59.543Z,5.60
2018-09-12T13:48:28.281Z,4.53
2018-09-12T13:50:59.077Z,3.33
2018-09-12T13:53:27.649Z,4.70
2018-09-12T13:55:56.157Z,2.98
2018-09-12T13:58:26.089Z,3.62
2018-09-12T14:00:54.666Z,3.70
2018-09-12T14:03:23.301Z,3.55
2018-09-12T14:05:51.841Z,3.30
2018-09-12T14:08:20.684Z,3.40
2018-09-12T14:10:49.160Z,3.08
2018-09-12T14:13:17.626Z,3.00
2018-09-12T14:15:46.226Z,3.10
2018-09-12T14:18:14.718Z,3.20
2018-09-12T14:20:43.374Z,3.10
2018-09-12T14:23:12.176Z,3.33
2018-09-12T14:25:40.841Z,3.40
2018-09-12T14:28:09.445Z,3.47
2018-09-12T14:30:38.189Z,3.33
2018-09-12T14:33:06.705Z,3.55
2018-09-12T14:35:35.289Z,3.12
2018-09-12T14:38:05.839Z,3.33
2018-09-12T14:40:34.429Z,3.02
2018-09-12T14:43:03.018Z,3.42
2018-09-12T14:45:31.861Z,3.95
2018-09-12T14:48:01.737Z,3.52
2018-09-12T14:50:30.348Z,3.20
2018-09-12T14:52:59.155Z,3.55
2018-09-12T14:55:27.658Z,3.40
2018-09-12T14:57:56.380Z,3.50
2018-09-12T15:00:26.786Z,3.92
2018-09-12T15:02:57.902Z,3.37
2018-09-12T15:05:26.897Z,3.40
2018-09-12T15:07:56.105Z,6.67
2018-09-12T15:10:24.974Z,8.68
2018-09-12T15:12:53.639Z,5.12
2018-09-12T15:15:22.169Z,4.17
2018-09-12T15:17:50.709Z,3.98
2018-09-12T15:20:19.289Z,3.77
2018-09-12T15:22:47.905Z,4.03
2018-09-12T15:25:16.714Z,4.05
2018-09-12T15:27:45.361Z,3.77
2018-09-12T15:30:14.977Z,3.67
2018-09-12T15:32:43.562Z,5.17
2018-09-12T15:35:12.186Z,3.70
2018-09-12T15:37:41.164Z,3.90
2018-09-12T15:40:10.419Z,3.90
2018-09-12T15:42:39.857Z,3.98
2018-09-12T15:45:08.487Z,4.17
2018-09-12T15:47:37.068Z,3.65
2018-09-12T15:50:06.053Z,4.20
2018-09-12T15:52:34.728Z,4.40
2018-09-12T15:55:03.407Z,3.90
2018-09-12T15:57:31.874Z,3.80
2018-09-12T16:00:01.404Z,4.20
2018-09-12T16:02:29.993Z,4.12
2018-09-12T16:04:58.687Z,4.33
2018-09-12T16:07:27.442Z,4.10
2018-09-12T16:09:56.022Z,4.25
2018-09-12T16:12:24.655Z,3.67
2018-09-12T16:14:53.240Z,3.75
2018-09-12T16:17:21.833Z,3.75
2018-09-12T16:19:50.513Z,3.70
2018-09-12T16:22:18.974Z,3.67
2018-09-12T16:24:47.493Z,4.00
2018-09-12T16:27:17.225Z,4.23
2018-09-12T16:29:45.913Z,4.60
2018-09-12T16:32:16.333Z,4.00
2018-09-12T16:34:44.839Z,4.20
2018-09-12T16:37:14.034Z,4.57
2018-09-12T16:39:42.670Z,4.70
2018-09-12T16:42:17.136Z,4.37
2018-09-12T16:44:45.839Z,4.23
2018-09-12T16:47:18.023Z,4.93
2018-09-12T16:49:59.157Z,5.50
2018-09-12T16:52:51.760Z,5.17
2018-09-12T16:55:21.108Z,5.23
2018-09-12T16:57:49.931Z,5.47
2018-09-12T17:00:18.618Z,5.80
2018-09-12T17:02:47.624Z,5.70
2018-09-12T17:05:16.131Z,6.27
2018-09-12T17:07:44.782Z,5.53
2018-09-12T17:10:13.810Z,6.83
2018-09-12T17:12:42.374Z,6.80
2018-09-12T17:15:11.202Z,6.80
2018-09-12T17:17:39.731Z,6.00
2018-09-12T17:20:08.390Z,5.63
2018-09-12T17:22:36.949Z,6.10
2018-09-12T17:25:05.547Z,6.10
2018-09-12T17:27:34.095Z,6.23
2018-09-12T17:30:02.927Z,6.53
2018-09-12T17:32:31.515Z,6.30
2018-09-12T17:35:00.174Z,5.73
2018-09-12T17:37:28.760Z,6.83
2018-09-12T17:39:58.218Z,6.77
2018-09-12T17:42:26.844Z,6.83
2018-09-12T17:44:55.482Z,7.47
2018-09-12T17:47:24.204Z,7.57
2018-09-12T17:49:52.681Z,7.00
2018-09-12T17:52:21.157Z,7.40
2018-09-12T17:54:49.667Z,7.37
2018-09-12T17:57:18.305Z,6.83
2018-09-12T17:59:47.109Z,6.20
2018-09-12T18:02:15.897Z,6.43
2018-09-12T18:04:44.543Z,6.37
2018-09-12T18:07:13.119Z,6.90
2018-09-12T18:09:43.544Z,6.20
2018-09-12T18:12:12.010Z,6.43
2018-09-12T18:14:40.757Z,5.93
2018-09-12T18:17:09.488Z,5.87
2018-09-12T18:19:38.157Z,5.20
2018-09-12T18:22:06.870Z,6.27
2018-09-12T18:24:35.459Z,5.97
2018-09-12T18:27:04.256Z,6.23
2018-09-12T18:29:32.905Z,7.00
2018-09-12T18:32:01.485Z,6.27
2018-09-12T18:34:30.047Z,6.67
2018-09-12T18:36:58.499Z,6.80
2018-09-12T18:39:27.259Z,6.97
2018-09-12T18:41:55.993Z,6.37
2018-09-12T18:44:24.596Z,6.30
2018-09-12T18:46:53.310Z,6.47
2018-09-12T18:49:22.017Z,6.20
2018-09-12T18:51:50.513Z,6.07
2018-09-12T18:54:19.079Z,6.50
2018-09-12T18:56:47.774Z,7.27
2018-09-12T18:59:16.365Z,7.50
2018-09-12T19:01:44.909Z,7.43
2018-09-12T19:04:13.497Z,6.97
2018-09-12T19:06:42.208Z,6.30
2018-09-12T19:09:12.245Z,7.15
2018-09-12T19:11:40.995Z,6.83
2018-09-12T19:14:09.501Z,10.90
2018-09-12T19:16:38.356Z,7.87
2018-09-12T19:19:07.274Z,8.53
2018-09-12T19:21:35.822Z,7.00
2018-09-12T19:24:04.433Z,7.50
2018-09-12T19:26:32.971Z,7.80
2018-09-12T19:29:02.389Z,7.37
2018-09-12T19:31:31.126Z,7.27
2018-09-12T19:34:00.002Z,7.87
2018-09-12T19:36:29.552Z,8.23
2018-09-12T19:38:58.081Z,8.80
2018-09-12T19:41:27.859Z,9.00
2018-09-12T19:43:56.849Z,8.93
2018-09-12T19:46:26.186Z,10.40
2018-09-12T19:48:55.579Z,11.00
2018-09-12T19:51:24.656Z,11.67
2018-09-12T19:53:53.385Z,11.67
2018-09-12T19:56:21.920Z,11.93
2018-09-12T19:58:50.635Z,11.80
2018-09-12T20:01:19.198Z,11.00
2018-09-12T20:03:47.862Z,10.97
2018-09-12T20:06:16.605Z,9.80
2018-09-12T20:08:45.359Z,9.23
2018-09-12T20:11:14.089Z,9.40
2018-09-12T20:13:42.800Z,10.47
2018-09-12T20:16:11.595Z,10.43
2018-09-12T20:18:40.163Z,10.27
2018-09-12T20:21:09.940Z,10.37
2018-09-12T20:23:38.745Z,9.73
2018-09-12T20:26:07.277Z,9.87
2018-09-12T20:28:39.874Z,10.80
2018-09-12T20:31:08.881Z,10.47
2018-09-12T20:33:37.591Z,10.40
2018-09-12T20:36:07.061Z,9.77
2018-09-12T20:38:36.359Z,10.57
2018-09-12T20:41:05.115Z,10.10
2018-09-12T20:43:33.857Z,11.00
2018-09-12T20:46:02.851Z,8.47
2018-09-12T20:48:31.906Z,7.90
2018-09-12T20:51:00.540Z,9.83
2018-09-12T20:53:29.088Z,8.63
2018-09-12T20:55:57.553Z,8.23
2018-09-12T20:58:26.027Z,7.57
2018-09-12T21:00:54.750Z,7.40
2018-09-12T21:03:23.258Z,7.17
2018-09-12T21:05:51.941Z,6.87
2018-09-12T21:08:20.581Z,6.23
2018-09-12T21:10:49.196Z,5.87
2018-09-12T21:13:17.888Z,5.20
2018-09-12T21:15:46.406Z,5.53
2018-09-12T21:18:15.423Z,4.70
2018-09-12T21:20:44.197Z,5.23
2018-09-12T21:23:12.785Z,5.10
2018-09-12T21:25:41.433Z,5.00
2018-09-12T21:28:09.956Z,5.20
2018-09-12T21:30:38.646Z,5.03
2018-09-12T21:33:07.288Z,5.00
2018-09-12T21:35:35.858Z,4.90
2018-09-12T21:38:04.683Z,4.70
2018-09-12T21:40:33.405Z,5.43
2018-09-12T21:43:02.169Z,4.90
2018-09-12T21:45:30.779Z,5.20
2018-09-12T21:47:59.393Z,5.80
2018-09-12T21:50:27.953Z,5.20
2018-09-12T21:52:56.541Z,5.10
2018-09-12T21:55:25.129Z,5.37
2018-09-12T21:57:53.972Z,4.53
2018-09-12T22:00:23.129Z,5.17
2018-09-12T22:02:51.832Z,4.87
2018-09-12T22:05:20.411Z,5.10
2018-09-12T22:07:49.176Z,4.37
2018-09-12T22:10:17.798Z,4.70
2018-09-12T22:12:46.433Z,5.17
2018-09-12T22:15:14.917Z,4.70
2018-09-12T22:17:44.664Z,4.83
2018-09-12T22:20:13.393Z,5.57
2018-09-12T22:22:42.154Z,5.47
2018-09-12T22:25:10.653Z,5.20
2018-09-12T22:27:39.239Z,4.80
2018-09-12T22:30:08.523Z,4.70
2018-09-12T22:32:37.046Z,5.03
2018-09-12T22:35:06.749Z,5.10
2018-09-12T22:37:35.334Z,5.20
2018-09-12T22:40:04.021Z,5.10
2018-09-12T22:42:32.772Z,5.13
2018-09-12T22:45:01.468Z,5.53
2018-09-12T22:47:29.951Z,5.03
2018-09-12T22:49:58.481Z,5.27
2018-09-12T22:52:27.233Z,5.45
2018-09-12T22:54:55.874Z,5.00
2018-09-12T22:57:24.438Z,5.10
2018-09-12T22:59:53.218Z,5.53
2018-09-12T23:02:21.859Z,5.20
2018-09-12T23:04:50.566Z,4.87
2018-09-12T23:07:19.182Z,5.60
2018-09-12T23:09:47.907Z,5.77
2018-09-12T23:12:16.590Z,5.30
2018-09-12T23:14:45.089Z,5.57
2018-09-12T23:17:13.847Z,5.40
2018-09-12T23:19:43.137Z,5.50
2018-09-12T23:22:11.637Z,5.97
2018-09-12T23:24:40.236Z,5.70
2018-09-12T23:27:08.742Z,6.27
2018-09-12T23:29:37.328Z,6.60
2018-09-12T23:32:06.063Z,6.00
2018-09-12T23:34:34.513Z,6.60
2018-09-12T23:37:03.196Z,6.20
2018-09-12T23:39:31.882Z,5.90
2018-09-12T23:42:00.555Z,6.37
2018-09-12T23:44:29.162Z,6.80
2018-09-12T23:46:57.889Z,6.20
2018-09-12T23:49:26.606Z,7.00
2018-09-12T23:51:55.261Z,6.70
2018-09-12T23:54:23.833Z,7.10
2018-09-12T23:56:52.354Z,6.87
2018-09-12T23:59:20.889Z,7.23
